createdAt,value
2018-12-23T00:02:07.899Z,43.60
2018-12-23T00:04:33.895Z,43.60
2018-12-23T00:07:00.208Z,43.60
2018-12-23T00:09:26.213Z,43.70
2018-12-23T00:11:52.208Z,43.70
2018-12-23T00:14:18.188Z,43.70
2018-12-23T00:16:44.172Z,43.70
2018-12-23T00:19:10.188Z,43.70
2018-12-23T00:21:36.496Z,43.70
2018-12-23T00:24:02.500Z,43.80
2018-12-23T00:26:28.515Z,43.60
2018-12-23T00:28:54.578Z,43.70
2018-12-23T00:31:20.609Z,43.70
2018-12-23T00:33:46.578Z,43.70
2018-12-23T00:36:12.563Z,43.80
2018-12-23T00:38:38.549Z,43.70
2018-12-23T00:41:04.553Z,43.80
2018-12-23T00:43:30.561Z,43.80
2018-12-23T00:45:56.566Z,43.80
2018-12-23T00:48:22.556Z,43.80
2018-12-23T00:50:48.597Z,43.80
2018-12-23T00:53:14.617Z,43.80
2018-12-23T00:55:40.623Z,43.80
2018-12-23T00:58:06.641Z,43.80
2018-12-23T01:00:32.661Z,43.80
2018-12-23T01:02:58.674Z,43.90
2018-12-23T01:05:28.731Z,43.80
2018-12-23T01:07:52.689Z,43.80
2018-12-23T01:10:18.698Z,43.80
2018-12-23T01:12:44.700Z,43.90
2018-12-23T01:15:10.662Z,43.80
2018-12-23T01:17:36.665Z,43.90
2018-12-23T01:20:02.652Z,43.90
2018-12-23T01:22:28.673Z,43.80
2018-12-23T01:24:54.677Z,43.80
2018-12-23T01:27:20.653Z,43.80
2018-12-23T01:29:46.644Z,43.80
2018-12-23T01:32:12.616Z,43.80
2018-12-23T01:34:38.613Z,43.90
2018-12-23T01:37:05.515Z,43.90
2018-12-23T01:39:31.502Z,43.90
2018-12-23T01:41:57.493Z,43.90
2018-12-23T01:44:23.513Z,43.80
2018-12-23T01:46:49.644Z,43.80
2018-12-23T01:49:15.624Z,43.80
2018-12-23T01:51:41.611Z,43.80
2018-12-23T01:54:07.635Z,43.80
2018-12-23T01:56:33.639Z,43.80
2018-12-23T01:58:59.620Z,43.80
2018-12-23T02:01:25.603Z,43.80
2018-12-23T02:03:51.650Z,43.80
2018-12-23T02:06:17.667Z,43.80
2018-12-23T02:08:43.659Z,43.80
2018-12-23T02:11:09.685Z,43.70
2018-12-23T02:13:35.693Z,43.70
2018-12-23T02:16:01.675Z,43.70
2018-12-23T02:18:27.641Z,43.70
2018-12-23T02:20:53.667Z,43.70
2018-12-23T02:23:19.643Z,43.70
2018-12-23T02:25:45.617Z,43.70
2018-12-23T02:28:11.590Z,43.80
2018-12-23T02:30:37.569Z,43.70
2018-12-23T02:33:03.597Z,43.70
2018-12-23T02:35:29.590Z,43.60
2018-12-23T02:37:55.597Z,43.70
2018-12-23T02:40:21.603Z,43.60
2018-12-23T02:42:47.602Z,43.60
2018-12-23T02:45:13.560Z,43.60
2018-12-23T02:47:39.550Z,43.60
2018-12-23T02:50:05.554Z,43.60
2018-12-23T02:52:31.542Z,43.70
2018-12-23T02:54:57.540Z,43.70
2018-12-23T02:57:23.541Z,43.60
2018-12-23T02:59:49.658Z,43.60
2018-12-23T03:02:15.647Z,43.70
2018-12-23T03:04:41.671Z,43.60
2018-12-23T03:07:07.699Z,43.50
2018-12-23T03:09:33.665Z,43.50
2018-12-23T03:11:59.670Z,44.30
2018-12-23T03:14:25.642Z,43.60
2018-12-23T03:16:51.633Z,43.60
2018-12-23T03:19:17.734Z,43.60
2018-12-23T03:21:43.800Z,43.60
2018-12-23T03:24:09.829Z,43.60
2018-12-23T03:26:35.857Z,43.60
2018-12-23T03:29:01.863Z,43.60
2018-12-23T03:31:27.835Z,43.60
2018-12-23T03:33:53.836Z,43.50
2018-12-23T03:36:19.811Z,43.50
2018-12-23T03:38:45.782Z,43.40
2018-12-23T03:41:11.765Z,43.40
2018-12-23T03:43:37.753Z,43.50
2018-12-23T03:46:03.719Z,43.70
2018-12-23T03:48:29.708Z,43.50
2018-12-23T03:50:55.718Z,43.50
2018-12-23T03:53:21.736Z,43.60
2018-12-23T03:58:24.969Z,43.60
2018-12-23T04:00:50.938Z,43.60
2018-12-23T04:03:16.927Z,43.60
2018-12-23T04:05:42.888Z,43.60
2018-12-23T04:08:08.890Z,43.60
2018-12-23T04:10:34.860Z,43.60
2018-12-23T04:13:00.851Z,43.50
2018-12-23T04:15:26.825Z,43.50
2018-12-23T04:17:52.795Z,43.40
2018-12-23T04:20:18.755Z,43.40
2018-12-23T04:22:44.707Z,43.40
2018-12-23T04:25:10.705Z,43.40
2018-12-23T04:27:36.693Z,43.30
2018-12-23T04:30:02.685Z,42.70
2018-12-23T04:32:28.694Z,43.30
2018-12-23T04:34:54.711Z,43.20
2018-12-23T04:37:20.719Z,43.20
2018-12-23T04:39:46.719Z,43.20
2018-12-23T04:42:12.679Z,43.20
2018-12-23T04:44:38.649Z,43.20
2018-12-23T04:47:04.628Z,43.20
2018-12-23T04:49:30.626Z,43.20
2018-12-23T04:51:56.597Z,43.20
2018-12-23T04:54:22.623Z,43.20
2018-12-23T04:56:48.623Z,43.20
2018-12-23T04:59:14.622Z,43.20
2018-12-23T05:01:47.491Z,43.20
2018-12-23T05:04:13.459Z,43.20
2018-12-23T05:06:43.464Z,43.10
2018-12-23T05:09:07.481Z,43.10
2018-12-23T05:11:33.487Z,43.20
2018-12-23T05:13:59.453Z,43.10
2018-12-23T05:16:25.450Z,43.20
2018-12-23T05:18:51.449Z,42.70
2018-12-23T05:21:17.415Z,43.20
2018-12-23T05:23:43.422Z,43.20
2018-12-23T05:26:09.400Z,43.80
2018-12-23T05:28:35.486Z,43.10
2018-12-23T05:31:01.592Z,43.10
2018-12-23T05:33:27.609Z,43.00
2018-12-23T05:35:53.607Z,43.00
2018-12-23T05:38:19.605Z,43.00
2018-12-23T05:40:45.563Z,43.00
2018-12-23T05:43:11.545Z,42.90
2018-12-23T05:45:37.520Z,42.90
2018-12-23T05:48:03.489Z,42.80
2018-12-23T05:50:29.452Z,42.80
2018-12-23T05:52:55.424Z,42.80
2018-12-23T05:55:21.404Z,42.90
2018-12-23T05:57:47.370Z,42.80
2018-12-23T06:00:13.338Z,42.70
2018-12-23T06:02:42.241Z,42.70
2018-12-23T06:05:08.237Z,42.70
2018-12-23T06:07:41.094Z,42.70
2018-12-23T06:10:07.166Z,42.70
2018-12-23T06:12:33.165Z,42.70
2018-12-23T06:14:59.151Z,42.70
2018-12-23T06:17:25.118Z,42.60
2018-12-23T06:19:51.102Z,42.60
2018-12-23T06:22:17.060Z,42.50
2018-12-23T06:24:43.066Z,42.50
2018-12-23T06:27:09.255Z,42.50
2018-12-23T06:29:35.229Z,42.60
2018-12-23T06:32:01.204Z,42.70
2018-12-23T06:34:27.197Z,42.70
2018-12-23T06:36:54.560Z,42.70
2018-12-23T06:39:20.560Z,42.70
2018-12-23T06:41:46.621Z,42.70
2018-12-23T06:44:12.588Z,42.70
2018-12-23T06:46:38.621Z,42.70
2018-12-23T06:49:04.607Z,42.60
2018-12-23T06:51:30.603Z,42.00
2018-12-23T06:53:56.577Z,42.70
2018-12-23T06:56:22.577Z,42.60
2018-12-23T06:58:48.598Z,42.60
2018-12-23T07:01:14.571Z,42.60
2018-12-23T07:03:40.544Z,42.60
2018-12-23T07:06:06.515Z,42.50
2018-12-23T07:08:32.503Z,42.50
2018-12-23T07:10:58.495Z,42.40
2018-12-23T07:13:24.454Z,42.30
2018-12-23T07:15:50.399Z,42.40
2018-12-23T07:18:16.409Z,42.30
2018-12-23T07:20:42.405Z,42.30
2018-12-23T07:23:08.401Z,42.20
2018-12-23T07:25:34.352Z,42.20
2018-12-23T07:28:00.329Z,42.20
2018-12-23T07:30:26.344Z,42.10
2018-12-23T07:32:52.321Z,42.10
2018-12-23T07:35:18.283Z,42.10
2018-12-23T07:37:44.245Z,42.10
2018-12-23T07:40:10.249Z,42.10
2018-12-23T07:42:36.254Z,42.10
2018-12-23T07:45:02.243Z,42.10
2018-12-23T07:47:28.253Z,42.10
2018-12-23T07:49:54.246Z,42.10
2018-12-23T07:52:20.217Z,42.10
2018-12-23T07:54:46.221Z,41.70
2018-12-23T07:57:12.956Z,42.10
2018-12-23T07:59:38.927Z,42.00
2018-12-23T08:02:05.106Z,42.00
2018-12-23T08:04:31.104Z,42.00
2018-12-23T08:06:57.230Z,42.00
2018-12-23T08:09:23.214Z,42.00
2018-12-23T08:11:49.209Z,42.00
2018-12-23T08:14:15.200Z,42.00
2018-12-23T08:16:41.172Z,42.00
2018-12-23T08:19:07.129Z,42.00
2018-12-23T08:21:33.142Z,42.00
2018-12-23T08:23:59.146Z,42.00
2018-12-23T08:26:25.142Z,42.10
2018-12-23T08:28:51.108Z,42.70
2018-12-23T08:31:17.088Z,42.10
2018-12-23T08:33:43.056Z,42.30
2018-12-23T08:36:09.035Z,42.30
2018-12-23T08:38:35.002Z,42.30
2018-12-23T08:41:00.956Z,42.30
2018-12-23T08:43:26.978Z,42.30
2018-12-23T08:45:52.992Z,42.30
2018-12-23T08:48:18.974Z,42.30
2018-12-23T08:50:44.976Z,42.30
2018-12-23T08:53:10.968Z,42.30
2018-12-23T08:55:36.954Z,42.30
2018-12-23T08:58:02.919Z,42.40
2018-12-23T09:00:28.886Z,42.40
2018-12-23T09:02:54.887Z,42.60
2018-12-23T09:05:20.879Z,42.40
2018-12-23T09:07:52.932Z,42.40
2018-12-23T09:10:14.918Z,42.60
2018-12-23T09:12:40.874Z,42.70
2018-12-23T09:15:06.852Z,42.70
2018-12-23T09:17:32.865Z,42.70
2018-12-23T09:19:58.829Z,42.70
2018-12-23T09:22:24.793Z,42.80
2018-12-23T09:24:50.786Z,42.80
2018-12-23T09:27:16.922Z,43.00
2018-12-23T09:29:42.891Z,43.00
2018-12-23T09:32:08.860Z,43.00
2018-12-23T09:34:34.844Z,42.90
2018-12-23T09:37:01.038Z,42.90
2018-12-23T09:39:27.040Z,43.00
2018-12-23T09:41:53.093Z,43.20
2018-12-23T09:44:19.173Z,43.10
2018-12-23T09:46:45.179Z,43.10
2018-12-23T09:49:11.168Z,43.20
2018-12-23T09:51:37.197Z,43.20
2018-12-23T09:54:03.195Z,43.20
2018-12-23T09:56:29.202Z,43.10
2018-12-23T09:58:55.235Z,43.00
2018-12-23T10:01:21.212Z,43.00
2018-12-23T10:03:47.217Z,43.00
2018-12-23T10:06:13.182Z,43.20
2018-12-23T10:08:39.180Z,43.10
2018-12-23T10:11:05.171Z,43.10
2018-12-23T10:13:31.145Z,43.10
2018-12-23T10:15:57.141Z,43.00
2018-12-23T10:18:23.102Z,43.10
2018-12-23T10:20:49.100Z,43.00
2018-12-23T10:23:15.083Z,43.00
2018-12-23T10:25:41.089Z,42.90
2018-12-23T10:28:07.087Z,42.40
2018-12-23T10:30:33.118Z,42.00
2018-12-23T10:32:59.116Z,41.50
2018-12-23T10:35:25.141Z,41.40
2018-12-23T10:37:51.170Z,41.20
2018-12-23T10:40:17.165Z,41.10
2018-12-23T10:42:43.173Z,40.90
2018-12-23T10:45:09.153Z,40.70
2018-12-23T10:47:35.118Z,40.60
2018-12-23T10:50:01.104Z,40.70
2018-12-23T10:52:27.124Z,40.90
2018-12-23T10:54:53.096Z,41.30
2018-12-23T10:57:19.086Z,41.50
2018-12-23T10:59:45.053Z,41.60
2018-12-23T11:02:13.775Z,41.80
2018-12-23T11:04:39.024Z,42.10
2018-12-23T11:07:05.202Z,42.00
2018-12-23T11:09:31.173Z,42.00
2018-12-23T11:11:57.195Z,42.00
2018-12-23T11:14:23.174Z,42.20
2018-12-23T11:16:49.436Z,42.20
2018-12-23T11:19:15.436Z,42.20
2018-12-23T11:21:41.433Z,42.20
2018-12-23T11:24:07.422Z,42.20
2018-12-23T11:26:33.440Z,42.20
2018-12-23T11:28:59.422Z,42.20
2018-12-23T11:31:25.632Z,42.10
2018-12-23T11:33:51.679Z,42.10
2018-12-23T11:36:18.093Z,42.20
2018-12-23T11:38:44.257Z,42.00
2018-12-23T11:41:10.232Z,42.10
2018-12-23T11:43:36.234Z,42.10
2018-12-23T11:46:02.323Z,42.20
2018-12-23T11:48:28.304Z,42.10
2018-12-23T11:50:54.296Z,42.20
2018-12-23T11:53:20.267Z,42.20
2018-12-23T11:55:46.237Z,42.10
2018-12-23T11:58:12.226Z,42.20
2018-12-23T12:00:38.218Z,42.20
2018-12-23T12:03:04.232Z,42.30
2018-12-23T12:05:30.197Z,42.30
2018-12-23T12:07:56.209Z,42.30
2018-12-23T12:10:22.226Z,42.40
2018-12-23T12:12:48.251Z,42.30
2018-12-23T12:15:14.256Z,42.30
2018-12-23T12:17:40.268Z,42.30
2018-12-23T12:20:06.277Z,42.30
2018-12-23T12:22:32.262Z,42.20
2018-12-23T12:24:58.287Z,42.30
2018-12-23T12:27:24.339Z,42.30
2018-12-23T12:29:50.312Z,42.20
2018-12-23T12:32:16.265Z,42.10
2018-12-23T12:34:42.281Z,42.20
2018-12-23T12:37:08.283Z,42.30
2018-12-23T12:39:34.294Z,42.30
2018-12-23T12:42:00.330Z,42.30
2018-12-23T12:44:26.347Z,42.30
2018-12-23T12:46:54.323Z,42.20
2018-12-23T12:49:20.309Z,42.40
2018-12-23T12:51:46.319Z,42.30
2018-12-23T12:54:12.303Z,42.40
2018-12-23T12:56:38.314Z,42.80
2018-12-23T12:59:04.307Z,42.40
2018-12-23T13:01:30.331Z,42.30
2018-12-23T13:03:56.303Z,42.40
2018-12-23T13:06:22.316Z,42.40
2018-12-23T13:08:48.285Z,42.50
2018-12-23T13:11:14.252Z,42.40
2018-12-23T13:13:40.231Z,42.40
2018-12-23T13:16:06.227Z,42.40
2018-12-23T13:18:32.231Z,42.40
2018-12-23T13:20:58.225Z,42.40
2018-12-23T13:23:24.229Z,42.50
2018-12-23T13:25:50.231Z,42.50
2018-12-23T13:28:16.257Z,42.40
2018-12-23T13:30:42.269Z,42.40
2018-12-23T13:33:08.282Z,42.40
2018-12-23T13:35:34.257Z,42.50
2018-12-23T13:38:00.258Z,42.50
2018-12-23T13:40:26.242Z,42.50
2018-12-23T13:42:52.207Z,42.50
2018-12-23T13:45:18.178Z,42.50
2018-12-23T13:47:44.153Z,43.10
2018-12-23T13:50:10.141Z,42.50
2018-12-23T13:52:36.108Z,42.60
2018-12-23T13:55:02.091Z,42.60
2018-12-23T13:57:28.090Z,42.60
2018-12-23T13:59:54.065Z,42.70
2018-12-23T14:02:20.027Z,42.60
2018-12-23T14:05:20.245Z,42.60
2018-12-23T14:07:46.424Z,42.70
2018-12-23T14:10:12.508Z,42.60
2018-12-23T14:12:38.579Z,42.60
2018-12-23T14:15:04.707Z,42.80
2018-12-23T14:17:30.876Z,42.70
2018-12-23T14:19:56.970Z,42.70
2018-12-23T14:22:23.068Z,42.70
2018-12-23T14:24:49.128Z,42.60
2018-12-23T14:27:15.296Z,42.60
2018-12-23T14:29:41.371Z,42.70
2018-12-23T14:32:07.464Z,42.70
2018-12-23T14:34:33.562Z,42.80
2018-12-23T14:36:59.631Z,42.70
2018-12-23T14:39:28.431Z,42.80
2018-12-23T14:41:54.633Z,43.30
2018-12-23T14:44:20.838Z,42.80
2018-12-23T14:46:46.924Z,42.80
2018-12-23T14:49:13.000Z,42.80
2018-12-23T14:51:39.074Z,42.80
2018-12-23T14:54:05.130Z,42.90
2018-12-23T14:56:31.204Z,42.90
2018-12-23T14:58:57.290Z,42.80
2018-12-23T15:01:23.385Z,42.90
2018-12-23T15:03:49.594Z,42.90
2018-12-23T15:06:15.676Z,42.90
2018-12-23T15:08:41.734Z,42.90
2018-12-23T15:11:07.834Z,42.90
2018-12-23T15:13:33.895Z,42.90
2018-12-23T15:15:59.983Z,42.90
2018-12-23T15:18:26.142Z,42.90
2018-12-23T15:20:52.216Z,43.00
2018-12-23T15:23:18.290Z,43.00
2018-12-23T15:25:44.355Z,43.00
2018-12-23T15:28:10.443Z,43.10
2018-12-23T15:30:36.514Z,43.10
2018-12-23T15:33:02.564Z,43.10
2018-12-23T15:35:28.668Z,43.10
2018-12-23T15:37:54.834Z,43.00
2018-12-23T15:40:20.910Z,43.10
2018-12-23T15:42:46.963Z,43.00
2018-12-23T15:45:13.028Z,43.20
2018-12-23T15:47:39.126Z,43.10
2018-12-23T15:50:05.263Z,43.00
2018-12-23T15:52:31.345Z,43.10
2018-12-23T15:54:57.412Z,43.00
2018-12-23T15:57:23.499Z,43.00
2018-12-23T15:59:49.572Z,43.80
2018-12-23T16:02:15.623Z,43.00
2018-12-23T16:04:41.712Z,43.00
2018-12-23T16:07:07.877Z,43.00
2018-12-23T16:09:33.938Z,43.00
2018-12-23T16:11:59.990Z,43.00
2018-12-23T16:14:26.079Z,43.00
2018-12-23T16:16:52.153Z,43.10
2018-12-23T16:19:18.394Z,43.00
2018-12-23T16:21:44.460Z,43.00
2018-12-23T16:24:10.537Z,43.00
2018-12-23T16:26:36.636Z,43.00
2018-12-23T16:29:02.728Z,43.00
2018-12-23T16:31:28.816Z,43.00
2018-12-23T16:33:54.887Z,43.00
2018-12-23T16:36:20.992Z,43.00
2018-12-23T16:38:47.091Z,43.10
2018-12-23T16:41:13.157Z,43.00
2018-12-23T16:43:39.253Z,43.60
2018-12-23T16:46:05.423Z,43.00
2018-12-23T16:48:31.576Z,43.10
2018-12-23T16:50:57.735Z,43.50
2018-12-23T16:53:23.921Z,43.00
2018-12-23T16:55:49.989Z,43.10
2018-12-23T16:58:16.091Z,43.00
2018-12-23T17:00:42.247Z,43.00
2018-12-23T17:03:08.330Z,43.20
2018-12-23T17:05:34.407Z,43.00
2018-12-23T17:08:00.469Z,43.00
2018-12-23T17:10:26.581Z,43.00
2018-12-23T17:12:52.849Z,43.00
2018-12-23T17:15:18.901Z,43.00
2018-12-23T17:17:44.989Z,43.00
2018-12-23T17:20:11.046Z,43.00
2018-12-23T17:22:37.123Z,43.00
2018-12-23T17:25:03.203Z,43.00
2018-12-23T17:27:29.300Z,43.00
2018-12-23T17:29:55.377Z,43.10
2018-12-23T17:32:21.526Z,43.00
2018-12-23T17:34:47.633Z,43.00
2018-12-23T17:37:13.731Z,43.00
2018-12-23T17:39:39.813Z,43.00
2018-12-23T17:42:05.978Z,43.10
2018-12-23T17:44:32.069Z,43.10
2018-12-23T17:46:58.876Z,43.00
2018-12-23T17:49:24.973Z,43.00
2018-12-23T17:51:51.165Z,42.90
2018-12-23T17:54:17.245Z,42.90
2018-12-23T17:56:43.380Z,42.90
2018-12-23T17:59:09.559Z,43.00
2018-12-23T18:01:35.637Z,42.90
2018-12-23T18:04:02.457Z,42.90
2018-12-23T18:06:28.859Z,42.80
2018-12-23T18:08:54.933Z,43.00
2018-12-23T18:11:21.029Z,42.70
2018-12-23T18:13:47.071Z,42.70
2018-12-23T18:16:13.158Z,42.70
2018-12-23T18:18:39.296Z,42.60
2018-12-23T18:21:05.380Z,42.60
2018-12-23T18:23:31.564Z,42.50
2018-12-23T18:25:57.627Z,42.50
2018-12-23T18:28:23.691Z,42.50
2018-12-23T18:30:49.775Z,42.50
2018-12-23T18:33:15.971Z,42.60
2018-12-23T18:35:42.118Z,42.50
2018-12-23T18:38:08.182Z,42.60
2018-12-23T18:40:34.256Z,42.60
2018-12-23T18:43:00.344Z,42.50
2018-12-23T18:45:26.401Z,42.60
2018-12-23T18:47:52.478Z,42.60
2018-12-23T18:50:18.700Z,42.60
2018-12-23T18:52:44.895Z,42.50
2018-12-23T18:55:10.978Z,42.60
2018-12-23T18:57:37.049Z,42.70
2018-12-23T19:00:03.148Z,42.80
2018-12-23T19:02:29.219Z,42.40
2018-12-23T19:04:55.321Z,42.70
2018-12-23T19:07:21.516Z,42.70
2018-12-23T19:09:47.577Z,42.40
2018-12-23T19:12:13.656Z,42.80
2018-12-23T19:14:39.740Z,42.80
2018-12-23T19:17:05.933Z,42.80
2018-12-23T19:19:32.119Z,43.40
2018-12-23T19:21:58.398Z,42.80
2018-12-23T19:24:24.485Z,42.90
2018-12-23T19:26:51.471Z,42.80
2018-12-23T19:29:17.553Z,42.00
2018-12-23T19:31:43.714Z,42.80
2018-12-23T19:34:09.899Z,42.80
2018-12-23T19:36:35.965Z,42.80
2018-12-23T19:39:02.239Z,42.80
2018-12-23T19:41:30.207Z,42.80
2018-12-23T19:43:56.285Z,42.80
2018-12-23T19:46:22.352Z,42.80
2018-12-23T19:48:48.408Z,42.70
2018-12-23T19:51:14.502Z,42.80
2018-12-23T19:53:40.696Z,42.80
2018-12-23T19:56:06.779Z,42.90
2018-12-23T19:58:32.856Z,42.80
2018-12-23T20:00:58.923Z,42.90
2018-12-23T20:03:25.002Z,42.90
2018-12-23T20:05:51.092Z,43.00
2018-12-23T20:08:17.164Z,42.90
2018-12-23T20:10:43.256Z,43.00
2018-12-23T20:13:09.339Z,42.90
2018-12-23T20:15:35.402Z,43.00
2018-12-23T20:18:01.495Z,43.00
2018-12-23T20:20:27.643Z,43.50
2018-12-23T20:22:53.730Z,43.10
2018-12-23T20:25:19.792Z,43.10
2018-12-23T20:27:45.856Z,43.20
2018-12-23T20:30:11.924Z,43.00
2018-12-23T20:32:38.008Z,43.00
2018-12-23T20:35:04.062Z,42.90
2018-12-23T20:37:30.174Z,42.90
2018-12-23T20:39:56.225Z,42.70
2018-12-23T20:42:22.337Z,42.80
2018-12-23T20:44:48.526Z,42.80
2018-12-23T20:47:15.012Z,42.80
2018-12-23T20:49:41.111Z,42.80
2018-12-23T20:52:07.188Z,42.90
2018-12-23T20:54:33.282Z,42.90
2018-12-23T20:56:59.580Z,42.80
2018-12-23T20:59:25.662Z,42.80
2018-12-23T21:01:51.710Z,42.80
2018-12-23T21:04:17.792Z,42.70
2018-12-23T21:06:43.951Z,42.70
2018-12-23T21:09:10.059Z,42.80
2018-12-23T21:11:36.228Z,42.70
2018-12-23T21:14:02.286Z,42.70
2018-12-23T21:16:28.374Z,42.70
2018-12-23T21:18:54.463Z,42.70
2018-12-23T21:21:20.555Z,42.80
2018-12-23T21:23:47.072Z,42.90
2018-12-23T21:26:13.309Z,42.90
2018-12-23T21:28:39.395Z,42.90
2018-12-23T21:31:05.575Z,42.80
2018-12-23T21:33:31.661Z,42.90
2018-12-23T21:35:57.757Z,42.80
2018-12-23T21:38:23.819Z,43.00
2018-12-23T21:40:49.881Z,43.00
2018-12-23T21:43:15.969Z,43.10
2018-12-23T21:45:42.043Z,43.20
2018-12-23T21:48:08.136Z,43.30
2018-12-23T21:50:34.231Z,43.20
2018-12-23T21:53:00.489Z,43.30
2018-12-23T21:55:26.656Z,43.40
2018-12-23T21:57:52.737Z,43.40
2018-12-23T22:00:18.818Z,43.50
2018-12-23T22:02:45.000Z,43.50
2018-12-23T22:05:11.054Z,43.60
2018-12-23T22:07:37.149Z,43.60
2018-12-23T22:10:03.202Z,43.70
2018-12-23T22:12:29.270Z,43.60
2018-12-23T22:14:55.330Z,43.80
2018-12-23T22:17:22.208Z,43.70
2018-12-23T22:19:48.294Z,43.80
2018-12-23T22:22:14.360Z,43.70
2018-12-23T22:24:40.430Z,44.40
2018-12-23T22:27:06.880Z,43.80
2018-12-23T22:29:33.136Z,43.80
2018-12-23T22:31:59.233Z,43.80
2018-12-23T22:34:25.319Z,43.90
2018-12-23T22:36:51.588Z,44.00
2018-12-23T22:39:17.766Z,44.00
2018-12-23T22:41:44.881Z,44.10
2018-12-23T22:44:10.968Z,44.10
2018-12-23T22:46:37.018Z,44.10
2018-12-23T22:49:03.090Z,44.10
2018-12-23T22:51:29.172Z,44.10
2018-12-23T22:53:55.224Z,44.20
2018-12-23T22:56:21.320Z,44.00
2018-12-23T22:58:47.504Z,44.10
2018-12-23T23:01:13.564Z,44.10
2018-12-23T23:03:39.645Z,44.20
2018-12-23T23:06:05.709Z,44.20
2018-12-23T23:08:31.806Z,44.20
2018-12-23T23:10:57.976Z,44.20
2018-12-23T23:13:24.034Z,44.30
2018-12-23T23:15:50.142Z,44.40
2018-12-23T23:18:16.230Z,44.40
2018-12-23T23:20:42.307Z,44.40
2018-12-23T23:23:08.378Z,44.30
2018-12-23T23:25:34.445Z,44.30
2018-12-23T23:28:00.521Z,44.20
2018-12-23T23:30:26.610Z,44.10
2018-12-23T23:32:52.684Z,44.10
2018-12-23T23:35:18.734Z,44.10
2018-12-23T23:37:44.910Z,44.10
2018-12-23T23:40:11.196Z,44.10
2018-12-23T23:42:37.277Z,44.10
2018-12-23T23:45:03.327Z,44.10
2018-12-23T23:47:29.390Z,44.10
2018-12-23T23:49:55.471Z,44.10
2018-12-23T23:52:21.637Z,44.10
2018-12-23T23:54:47.702Z,44.00
2018-12-23T23:57:14.297Z,44.10
2018-12-23T23:59:40.350Z,44.10
